Time;durP1;ratioP1;P1;durP2;ratioP2;P2;SDS_P1;SDS_P2;PMS_P1;PMS_P2;Temp;Humidity;BMP_temperature;BMP_pressure;BME280_temperature;BME280_humidity;BME280_pressure;Samples;Min_cycle;Max_cycle;Signal;HPM_P1;HPM_P2
2020/12/08 00:00:06;;;;;;;20.77;12.87;;;;;;;;;;5016495;28;20620;-71
2020/12/08 00:03:10;;;;;;;19.70;11.67;;;;;;;;;;5016074;28;20606;-71
2020/12/08 00:06:15;;;;;;;19.60;12.80;;;;;;;;;;5027947;28;20657;-71
2020/12/08 00:09:19;;;;;;;19.20;12.53;;;;;;;;;;5035649;28;20590;-71
2020/12/08 00:12:25;;;;;;;22.17;12.97;;;;;;;;;;5036152;28;20587;-71
2020/12/08 00:15:30;;;;;;;23.07;13.77;;;;;;;;;;5034021;28;20606;-71
2020/12/08 00:18:34;;;;;;;20.67;12.67;;;;;;;;;;5021777;28;20600;-71
2020/12/08 00:21:42;;;;;;;19.60;12.97;;;;;;;;;;5015725;28;20618;-71
2020/12/08 00:24:46;;;;;;;21.97;13.77;;;;;;;;;;5007306;28;20598;-71
2020/12/08 00:27:50;;;;;;;23.17;13.17;;;;;;;;;;5035614;28;20618;-71
2020/12/08 00:30:54;;;;;;;19.53;12.63;;;;;;;;;;5022947;28;20605;-71
2020/12/08 00:33:59;;;;;;;22.70;13.30;;;;;;;;;;5022565;28;20606;-71
2020/12/08 00:37:06;;;;;;;24.10;13.77;;;;;;;;;;4983871;28;20643;-71
2020/12/08 00:40:11;;;;;;;21.90;13.17;;;;;;;;;;4996409;28;20553;-71
2020/12/08 00:43:15;;;;;;;24.87;14.07;;;;;;;;;;4995789;28;20611;-71
2020/12/08 00:46:20;;;;;;;23.63;14.13;;;;;;;;;;5014181;28;21009;-71
2020/12/08 00:49:24;;;;;;;20.53;12.90;;;;;;;;;;5034707;28;20606;-71
2020/12/08 00:52:28;;;;;;;24.00;14.13;;;;;;;;;;5022740;28;20650;-71
2020/12/08 00:55:32;;;;;;;25.93;13.83;;;;;;;;;;5012585;28;21230;-72
2020/12/08 00:58:36;;;;;;;26.03;14.93;;;;;;;;;;4983533;28;21179;-71
2020/12/08 01:01:42;;;;;;;27.63;15.20;;;;;;;;;;4983676;28;20557;-71
2020/12/08 01:04:46;;;;;;;23.37;13.43;;;;;;;;;;4972796;28;20557;-71
2020/12/08 01:07:53;;;;;;;25.07;14.50;;;;;;;;;;5018389;28;20598;-71
2020/12/08 01:11:04;;;;;;;25.07;15.10;;;;;;;;;;5017471;28;20611;-71
2020/12/08 01:14:13;;;;;;;26.70;15.27;;;;;;;;;;5022685;28;20551;-71
2020/12/08 01:17:17;;;;;;;26.50;15.87;;;;;;;;;;5002577;28;20655;-71
2020/12/08 01:20:22;;;;;;;28.63;16.80;;;;;;;;;;4991933;28;20547;-71
2020/12/08 01:23:29;;;;;;;27.63;15.60;;;;;;;;;;5002591;28;20533;-71
2020/12/08 01:26:35;;;;;;;29.13;16.63;;;;;;;;;;5001659;28;20644;-71
2020/12/08 01:29:41;;;;;;;29.03;16.57;;;;;;;;;;5014498;28;20544;-71
2020/12/08 01:32:45;;;;;;;28.30;16.80;;;;;;;;;;5014339;28;20624;-71
2020/12/08 01:35:50;;;;;;;28.13;17.50;;;;;;;;;;4992482;28;20655;-71
2020/12/08 01:38:54;;;;;;;31.93;17.27;;;;;;;;;;5014592;28;20885;-71
2020/12/08 01:41:59;;;;;;;30.23;17.03;;;;;;;;;;5002302;28;20600;-71
2020/12/08 01:45:07;;;;;;;31.73;18.27;;;;;;;;;;4993560;28;21160;-71
2020/12/08 01:48:14;;;;;;;35.43;19.23;;;;;;;;;;4994041;28;20545;-71
2020/12/08 01:51:20;;;;;;;36.13;18.83;;;;;;;;;;4982661;28;20550;-71
2020/12/08 01:54:25;;;;;;;30.07;17.40;;;;;;;;;;5005360;28;20648;-71
2020/12/08 01:57:30;;;;;;;31.67;17.00;;;;;;;;;;5018656;28;20643;-71
2020/12/08 02:00:39;;;;;;;35.20;18.63;;;;;;;;;;5011620;28;20544;-72
2020/12/08 02:03:48;;;;;;;31.37;17.47;;;;;;;;;;5004222;28;20617;-71
2020/12/08 02:06:53;;;;;;;38.03;19.13;;;;;;;;;;5006736;28;21027;-71
2020/12/08 02:09:58;;;;;;;37.40;20.77;;;;;;;;;;5021679;28;20536;-71
2020/12/08 02:13:07;;;;;;;37.40;19.87;;;;;;;;;;5021229;28;21007;-71
2020/12/08 02:16:13;;;;;;;37.73;20.70;;;;;;;;;;5003505;28;20652;-70
2020/12/08 02:19:18;;;;;;;41.37;20.77;;;;;;;;;;4993173;28;20605;-71
2020/12/08 02:22:22;;;;;;;38.73;21.10;;;;;;;;;;4982346;28;20550;-71
2020/12/08 02:25:27;;;;;;;40.97;20.93;;;;;;;;;;4982489;28;20557;-73
2020/12/08 02:28:33;;;;;;;42.33;21.23;;;;;;;;;;5019362;28;20982;-71
2020/12/08 02:31:40;;;;;;;36.20;19.70;;;;;;;;;;5002123;28;20640;-71
2020/12/08 02:34:45;;;;;;;43.30;20.80;;;;;;;;;;4981940;28;20542;-71
2020/12/08 02:37:49;;;;;;;44.13;21.27;;;;;;;;;;5032044;28;20639;-71
2020/12/08 02:40:53;;;;;;;38.93;19.73;;;;;;;;;;5033126;28;20544;-71
2020/12/08 02:43:58;;;;;;;39.03;20.40;;;;;;;;;;5021380;28;20599;-71
2020/12/08 02:47:02;;;;;;;39.80;19.70;;;;;;;;;;4999836;28;20677;-71
2020/12/08 02:50:06;;;;;;;37.83;19.70;;;;;;;;;;4981987;28;20549;-71
2020/12/08 02:53:12;;;;;;;34.97;18.93;;;;;;;;;;4981883;28;20629;-71
2020/12/08 02:56:25;;;;;;;36.10;18.73;;;;;;;;;;4993584;28;20654;-70
2020/12/08 02:59:35;;;;;;;39.50;19.73;;;;;;;;;;5026296;28;20593;-71
2020/12/08 03:02:39;;;;;;;34.10;18.57;;;;;;;;;;5001122;28;20556;-71
2020/12/08 03:05:43;;;;;;;37.23;19.20;;;;;;;;;;5002021;28;20956;-71
2020/12/08 03:08:47;;;;;;;32.93;18.20;;;;;;;;;;5020689;28;20599;-71
2020/12/08 03:11:51;;;;;;;35.73;20.13;;;;;;;;;;5024617;28;20952;-71
2020/12/08 03:14:59;;;;;;;37.23;18.67;;;;;;;;;;5024500;28;21161;-71
2020/12/08 03:18:13;;;;;;;37.60;19.77;;;;;;;;;;4986732;28;20545;-71
2020/12/08 03:21:17;;;;;;;35.43;18.47;;;;;;;;;;4996779;28;20541;-71
2020/12/08 03:24:23;;;;;;;38.27;20.00;;;;;;;;;;4985550;28;20530;-71
2020/12/08 03:27:27;;;;;;;35.57;18.93;;;;;;;;;;5008178;28;20646;-71
2020/12/08 03:30:37;;;;;;;36.73;19.07;;;;;;;;;;5024628;28;21066;-71
2020/12/08 03:33:42;;;;;;;38.03;19.40;;;;;;;;;;5036379;28;20583;-71
2020/12/08 03:36:46;;;;;;;41.20;20.27;;;;;;;;;;5006684;28;20661;-71
2020/12/08 03:39:51;;;;;;;39.50;19.20;;;;;;;;;;5003327;28;20588;-71
2020/12/08 03:42:57;;;;;;;39.77;19.40;;;;;;;;;;4996366;28;20612;-71
2020/12/08 03:46:04;;;;;;;39.37;20.67;;;;;;;;;;5003598;28;20646;-71
2020/12/08 03:49:09;;;;;;;36.83;18.77;;;;;;;;;;5012981;28;20883;-71
2020/12/08 03:52:16;;;;;;;37.73;19.80;;;;;;;;;;5024134;28;20584;-71
2020/12/08 03:55:20;;;;;;;36.47;18.33;;;;;;;;;;4996876;28;20545;-71
2020/12/08 03:58:25;;;;;;;40.60;19.07;;;;;;;;;;5003444;28;20584;-71
2020/12/08 04:01:29;;;;;;;39.73;19.23;;;;;;;;;;5004260;28;20968;-71
2020/12/08 04:04:33;;;;;;;39.50;19.43;;;;;;;;;;4992831;28;20812;-71
2020/12/08 04:07:38;;;;;;;41.07;18.40;;;;;;;;;;5008342;28;21259;-71
2020/12/08 04:10:42;;;;;;;45.43;20.83;;;;;;;;;;5023608;28;20551;-71
2020/12/08 04:13:48;;;;;;;34.30;18.50;;;;;;;;;;5024012;28;20580;-71
2020/12/08 04:16:53;;;;;;;37.13;18.27;;;;;;;;;;5014072;28;21012;-71
2020/12/08 04:19:58;;;;;;;37.43;19.10;;;;;;;;;;5009701;28;20587;-71
2020/12/08 04:23:01;;;;;;;41.47;18.63;;;;;;;;;;5023676;28;20611;-71
2020/12/08 04:26:10;;;;;;;38.13;19.23;;;;;;;;;;5020490;28;20657;-71
2020/12/08 04:29:16;;;;;;;36.37;17.63;;;;;;;;;;5003857;28;20548;-71
2020/12/08 04:32:25;;;;;;;35.60;17.47;;;;;;;;;;5003556;28;20608;-71
2020/12/08 04:35:29;;;;;;;38.87;19.23;;;;;;;;;;5012336;28;20596;-72
2020/12/08 04:38:33;;;;;;;42.03;19.53;;;;;;;;;;4983945;28;20684;-71
2020/12/08 04:41:51;;;;;;;40.47;19.03;;;;;;;;;;4994879;28;20637;-71
2020/12/08 04:44:58;;;;;;;42.90;19.97;;;;;;;;;;5028740;23;20702;-71
2020/12/08 04:48:06;;;;;;;37.33;17.33;;;;;;;;;;4995688;28;20560;-71
2020/12/08 04:51:10;;;;;;;36.23;17.37;;;;;;;;;;4995865;28;20549;-71
2020/12/08 04:54:14;;;;;;;32.67;15.93;;;;;;;;;;4995806;28;20600;-70
2020/12/08 04:57:19;;;;;;;37.30;18.07;;;;;;;;;;5010890;28;21029;-71
2020/12/08 05:00:23;;;;;;;36.03;17.83;;;;;;;;;;5008305;28;21216;-71
2020/12/08 05:03:29;;;;;;;35.90;17.17;;;;;;;;;;4995634;28;20607;-71
2020/12/08 05:06:36;;;;;;;38.10;17.97;;;;;;;;;;4995547;28;20627;-71
2020/12/08 05:09:44;;;;;;;36.67;18.30;;;;;;;;;;4973131;28;20598;-71
2020/12/08 05:12:49;;;;;;;38.60;19.20;;;;;;;;;;5002202;28;20648;-71
2020/12/08 05:16:00;;;;;;;40.83;18.40;;;;;;;;;;5003093;28;20643;-70
2020/12/08 05:19:11;;;;;;;41.47;19.03;;;;;;;;;;5002606;28;21209;-71
2020/12/08 05:22:15;;;;;;;41.30;18.33;;;;;;;;;;4994968;28;20604;-70
2020/12/08 05:25:20;;;;;;;44.67;18.17;;;;;;;;;;5001398;28;20592;-70
2020/12/08 05:28:24;;;;;;;53.13;18.17;;;;;;;;;;4991368;28;20600;-70
2020/12/08 05:31:28;;;;;;;38.97;17.93;;;;;;;;;;5009658;28;20607;-71
2020/12/08 05:34:34;;;;;;;31.83;16.30;;;;;;;;;;5014564;28;20600;-71
2020/12/08 05:37:40;;;;;;;34.23;15.67;;;;;;;;;;5014255;28;20627;-70
2020/12/08 05:40:45;;;;;;;31.90;16.10;;;;;;;;;;5003634;28;20592;-70
2020/12/08 05:43:50;;;;;;;31.17;15.67;;;;;;;;;;5014041;28;21200;-71
2020/12/08 05:46:54;;;;;;;43.43;17.50;;;;;;;;;;5002196;28;20631;-70
2020/12/08 05:50:02;;;;;;;36.07;17.17;;;;;;;;;;5011323;28;20596;-71
2020/12/08 05:53:10;;;;;;;33.33;16.70;;;;;;;;;;4983686;28;20627;-71
2020/12/08 05:56:13;;;;;;;46.27;17.77;;;;;;;;;;4998741;28;20663;-72
2020/12/08 05:59:28;;;;;;;36.63;18.00;;;;;;;;;;4994513;28;20651;-72
2020/12/08 06:02:32;;;;;;;31.20;16.43;;;;;;;;;;4998430;28;20607;-72
2020/12/08 06:05:37;;;;;;;33.10;16.40;;;;;;;;;;5014044;28;21097;-72
2020/12/08 06:08:43;;;;;;;38.67;18.00;;;;;;;;;;5006697;28;21165;-72
2020/12/08 06:11:47;;;;;;;36.97;17.70;;;;;;;;;;4982295;28;21119;-72
2020/12/08 06:14:51;;;;;;;35.83;17.40;;;;;;;;;;4982107;28;20628;-72
2020/12/08 06:17:55;;;;;;;47.97;23.27;;;;;;;;;;4982081;28;20623;-72
2020/12/08 06:21:01;;;;;;;40.73;19.87;;;;;;;;;;4994164;28;20608;-72
2020/12/08 06:24:05;;;;;;;35.77;18.07;;;;;;;;;;4982033;28;20548;-72
2020/12/08 06:27:09;;;;;;;38.87;17.57;;;;;;;;;;4987457;28;20654;-72
2020/12/08 06:30:13;;;;;;;34.47;16.40;;;;;;;;;;4981984;28;20548;-72
2020/12/08 06:33:17;;;;;;;31.77;16.13;;;;;;;;;;4982028;28;20949;-72
2020/12/08 06:36:27;;;;;;;29.50;15.87;;;;;;;;;;4981773;28;20631;-72
2020/12/08 06:39:31;;;;;;;31.33;16.77;;;;;;;;;;4994055;28;20549;-72
2020/12/08 06:42:36;;;;;;;30.23;16.23;;;;;;;;;;4981818;28;20544;-72
2020/12/08 06:45:39;;;;;;;29.40;15.93;;;;;;;;;;4982104;28;21197;-72
2020/12/08 06:48:44;;;;;;;33.40;17.10;;;;;;;;;;4982070;28;20557;-72
2020/12/08 06:51:56;;;;;;;29.83;16.23;;;;;;;;;;4993563;28;20556;-72
2020/12/08 06:55:02;;;;;;;27.47;16.27;;;;;;;;;;4996190;28;20651;-73
2020/12/08 06:58:06;;;;;;;32.87;16.10;;;;;;;;;;4993788;28;20584;-72
2020/12/08 07:01:10;;;;;;;33.33;17.63;;;;;;;;;;4993466;28;20565;-73
2020/12/08 07:04:14;;;;;;;31.20;17.00;;;;;;;;;;5011989;28;20943;-72
2020/12/08 07:07:18;;;;;;;28.90;16.50;;;;;;;;;;5013093;28;20631;-72
2020/12/08 07:10:22;;;;;;;29.73;16.00;;;;;;;;;;5001020;28;20560;-72
2020/12/08 07:13:26;;;;;;;29.63;16.13;;;;;;;;;;5013064;28;20592;-72
2020/12/08 07:16:34;;;;;;;30.33;16.27;;;;;;;;;;5012982;28;20635;-72
2020/12/08 07:19:38;;;;;;;31.90;16.57;;;;;;;;;;5013014;28;20552;-72
2020/12/08 07:22:44;;;;;;;33.50;16.90;;;;;;;;;;5012984;28;20547;-72
2020/12/08 07:25:47;;;;;;;31.00;18.07;;;;;;;;;;5013134;28;20544;-72
2020/12/08 07:28:53;;;;;;;33.30;17.67;;;;;;;;;;5012307;28;20591;-72
2020/12/08 07:31:57;;;;;;;30.17;17.00;;;;;;;;;;5013252;28;20552;-72
2020/12/08 07:35:02;;;;;;;28.73;16.20;;;;;;;;;;5013130;28;21160;-71
2020/12/08 07:38:07;;;;;;;30.00;17.27;;;;;;;;;;5013124;28;20608;-71
2020/12/08 07:41:23;;;;;;;32.13;19.37;;;;;;;;;;4989654;28;20928;-72
2020/12/08 07:44:27;;;;;;;31.13;17.90;;;;;;;;;;5012747;28;20624;-73
2020/12/08 07:47:31;;;;;;;30.77;16.83;;;;;;;;;;5012734;28;20630;-72
2020/12/08 07:50:36;;;;;;;29.87;17.27;;;;;;;;;;5004216;28;20580;-72
2020/12/08 07:53:40;;;;;;;32.07;18.00;;;;;;;;;;4993082;28;20620;-72
2020/12/08 07:56:44;;;;;;;30.30;17.70;;;;;;;;;;4983409;28;20992;-72
2020/12/08 07:59:48;;;;;;;31.20;17.53;;;;;;;;;;4996574;28;20987;-72
2020/12/08 08:02:52;;;;;;;29.83;17.53;;;;;;;;;;4984636;28;20585;-72
2020/12/08 08:05:57;;;;;;;26.70;15.67;;;;;;;;;;4996560;28;21213;-72
2020/12/08 08:09:06;;;;;;;25.40;15.73;;;;;;;;;;4996327;28;20553;-72
2020/12/08 08:12:10;;;;;;;25.77;15.17;;;;;;;;;;4996454;28;20557;-71
2020/12/08 08:15:14;;;;;;;26.03;15.40;;;;;;;;;;4995588;28;20647;-71
2020/12/08 08:18:18;;;;;;;34.03;16.73;;;;;;;;;;4996146;28;20975;-71
2020/12/08 08:21:22;;;;;;;25.97;14.53;;;;;;;;;;4996303;28;20608;-71
2020/12/08 08:24:26;;;;;;;25.77;16.07;;;;;;;;;;4996044;28;20634;-71
2020/12/08 08:27:34;;;;;;;29.93;16.87;;;;;;;;;;4996959;28;20632;-71
2020/12/08 08:30:38;;;;;;;25.73;15.53;;;;;;;;;;4996231;28;20549;-71
2020/12/08 08:33:43;;;;;;;29.27;15.97;;;;;;;;;;4996074;28;20596;-72
2020/12/08 08:36:51;;;;;;;27.00;16.53;;;;;;;;;;4995719;28;20643;-71
2020/12/08 08:39:55;;;;;;;27.03;15.20;;;;;;;;;;4995085;28;21206;-72
2020/12/08 08:43:00;;;;;;;26.67;14.93;;;;;;;;;;4994883;28;20983;-72
2020/12/08 08:46:04;;;;;;;23.07;15.10;;;;;;;;;;4995469;28;20635;-72
2020/12/08 08:49:14;;;;;;;24.37;15.10;;;;;;;;;;4995874;28;20545;-72
2020/12/08 08:52:17;;;;;;;23.17;14.67;;;;;;;;;;4995790;28;20553;-71
2020/12/08 08:55:22;;;;;;;22.93;14.20;;;;;;;;;;4994678;28;20596;-71
2020/12/08 08:58:26;;;;;;;21.80;14.03;;;;;;;;;;4994900;28;20554;-71
2020/12/08 09:01:31;;;;;;;28.33;16.97;;;;;;;;;;4995526;28;20568;-72
2020/12/08 09:04:36;;;;;;;22.83;14.93;;;;;;;;;;4995611;28;20534;-71
2020/12/08 09:07:40;;;;;;;25.57;16.00;;;;;;;;;;4994256;28;20624;-72
2020/12/08 09:10:44;;;;;;;20.83;13.50;;;;;;;;;;4995375;28;20894;-72
2020/12/08 09:13:49;;;;;;;20.87;13.43;;;;;;;;;;4995569;28;20921;-72
2020/12/08 09:16:53;;;;;;;22.50;14.73;;;;;;;;;;4995104;28;20628;-72
2020/12/08 09:19:57;;;;;;;23.60;13.83;;;;;;;;;;4995147;28;20537;-72
2020/12/08 09:23:01;;;;;;;20.43;13.17;;;;;;;;;;4983243;28;20596;-72
2020/12/08 09:26:05;;;;;;;20.40;12.73;;;;;;;;;;4994809;28;20625;-72
2020/12/08 09:29:10;;;;;;;18.00;11.93;;;;;;;;;;4994806;28;20889;-72
2020/12/08 09:32:14;;;;;;;16.67;11.30;;;;;;;;;;4994895;28;21100;-72
2020/12/08 09:35:18;;;;;;;16.70;11.67;;;;;;;;;;4983145;28;20590;-72
2020/12/08 09:38:22;;;;;;;16.27;11.60;;;;;;;;;;4994924;28;20545;-72
2020/12/08 09:41:26;;;;;;;17.97;11.80;;;;;;;;;;4993910;28;20549;-72
2020/12/08 09:44:31;;;;;;;17.27;11.93;;;;;;;;;;4994623;28;20608;-73
2020/12/08 09:47:35;;;;;;;17.87;12.60;;;;;;;;;;4994561;28;20636;-72
2020/12/08 09:50:40;;;;;;;18.37;12.53;;;;;;;;;;4994973;28;20887;-72
2020/12/08 09:53:44;;;;;;;20.53;12.73;;;;;;;;;;4994281;28;20605;-72
2020/12/08 09:56:48;;;;;;;17.97;12.27;;;;;;;;;;4982436;28;20629;-72
2020/12/08 09:59:52;;;;;;;17.10;11.90;;;;;;;;;;4994517;28;20541;-72
2020/12/08 10:02:56;;;;;;;17.47;11.57;;;;;;;;;;5002115;28;20591;-71
2020/12/08 10:06:02;;;;;;;16.50;11.07;;;;;;;;;;5014094;28;20619;-72
2020/12/08 10:09:06;;;;;;;19.33;12.73;;;;;;;;;;5014067;28;20553;-71
2020/12/08 10:12:10;;;;;;;48.00;23.97;;;;;;;;;;5001857;28;20541;-72
2020/12/08 10:15:17;;;;;;;23.40;14.03;;;;;;;;;;5001990;28;20588;-72
2020/12/08 10:18:21;;;;;;;18.70;12.63;;;;;;;;;;5013760;28;20552;-72
2020/12/08 10:21:25;;;;;;;20.13;12.77;;;;;;;;;;5013861;28;20544;-72
2020/12/08 10:24:30;;;;;;;35.57;21.07;;;;;;;;;;5001833;28;20536;-73
2020/12/08 10:27:34;;;;;;;27.70;16.90;;;;;;;;;;5013640;28;20619;-72
2020/12/08 10:30:38;;;;;;;25.47;17.03;;;;;;;;;;5014018;28;20544;-72
2020/12/08 10:33:43;;;;;;;34.20;19.23;;;;;;;;;;5001571;28;21071;-72
2020/12/08 10:36:47;;;;;;;26.37;17.07;;;;;;;;;;5013815;28;20948;-72
2020/12/08 10:39:51;;;;;;;18.20;12.47;;;;;;;;;;5013546;28;20545;-72
2020/12/08 10:42:55;;;;;;;18.73;12.87;;;;;;;;;;5009237;28;20615;-72
2020/12/08 10:46:00;;;;;;;18.50;13.17;;;;;;;;;;4993915;28;20643;-73
2020/12/08 10:49:05;;;;;;;17.37;12.00;;;;;;;;;;4994676;28;21159;-71
2020/12/08 10:52:09;;;;;;;18.77;12.37;;;;;;;;;;4981741;28;20604;-72
2020/12/08 10:55:14;;;;;;;17.47;12.50;;;;;;;;;;4993405;28;20636;-72
2020/12/08 10:58:18;;;;;;;18.63;12.73;;;;;;;;;;4995715;28;20886;-71
2020/12/08 11:01:24;;;;;;;19.00;13.47;;;;;;;;;;5000824;28;20596;-71
2020/12/08 11:04:28;;;;;;;16.97;12.10;;;;;;;;;;4987001;28;20604;-71
2020/12/08 11:07:34;;;;;;;17.10;11.60;;;;;;;;;;4981411;28;20630;-73
2020/12/08 11:10:38;;;;;;;17.07;11.27;;;;;;;;;;4993769;28;20553;-73
2020/12/08 11:13:42;;;;;;;18.00;12.77;;;;;;;;;;4981904;28;20620;-72
2020/12/08 11:16:47;;;;;;;21.07;12.57;;;;;;;;;;4989624;28;20629;-72
2020/12/08 11:19:50;;;;;;;17.60;11.87;;;;;;;;;;4993619;28;21159;-72
2020/12/08 11:22:55;;;;;;;18.20;12.13;;;;;;;;;;4993383;28;20601;-72
2020/12/08 11:25:59;;;;;;;20.53;12.87;;;;;;;;;;5006295;28;21262;-72
2020/12/08 11:29:05;;;;;;;19.17;11.90;;;;;;;;;;5012676;28;20592;-72
2020/12/08 11:32:10;;;;;;;16.77;11.37;;;;;;;;;;5016054;28;20556;-72
2020/12/08 11:35:15;;;;;;;18.93;12.07;;;;;;;;;;5009732;28;20617;-71
2020/12/08 11:38:19;;;;;;;19.37;12.77;;;;;;;;;;4985244;28;20555;-72
2020/12/08 11:41:23;;;;;;;16.57;12.13;;;;;;;;;;4995097;28;20721;-71
2020/12/08 11:44:28;;;;;;;18.27;12.50;;;;;;;;;;4996941;28;20608;-72
2020/12/08 11:47:33;;;;;;;18.13;12.57;;;;;;;;;;5008105;28;20648;-71
2020/12/08 11:50:37;;;;;;;19.00;13.17;;;;;;;;;;5003467;28;20533;-71
2020/12/08 11:53:40;;;;;;;19.53;13.13;;;;;;;;;;4985182;28;20530;-71
2020/12/08 11:56:47;;;;;;;19.30;13.37;;;;;;;;;;4996547;28;20621;-72
2020/12/08 11:59:51;;;;;;;22.13;14.13;;;;;;;;;;5006591;28;20616;-71
2020/12/08 12:02:55;;;;;;;23.20;14.43;;;;;;;;;;5002367;28;20588;-72
2020/12/08 12:05:59;;;;;;;21.90;14.00;;;;;;;;;;5005269;28;20636;-72
2020/12/08 12:09:04;;;;;;;21.47;14.67;;;;;;;;;;4998668;28;20592;-72
2020/12/08 12:12:08;;;;;;;22.17;14.43;;;;;;;;;;4996393;28;20609;-71
2020/12/08 12:15:12;;;;;;;21.70;14.90;;;;;;;;;;4997387;28;20585;-71
2020/12/08 12:18:16;;;;;;;22.80;14.37;;;;;;;;;;4996303;28;20952;-71
2020/12/08 12:21:20;;;;;;;24.80;15.17;;;;;;;;;;5007576;28;20588;-71
2020/12/08 12:24:25;;;;;;;24.87;15.30;;;;;;;;;;4997429;28;20588;-71
2020/12/08 12:27:29;;;;;;;21.23;14.23;;;;;;;;;;5006000;28;20633;-71
2020/12/08 12:30:33;;;;;;;21.93;14.10;;;;;;;;;;4987938;28;20616;-74
2020/12/08 12:33:38;;;;;;;24.00;15.57;;;;;;;;;;5015748;28;20869;-74
2020/12/08 12:36:47;;;;;;;22.23;14.67;;;;;;;;;;4989603;28;20778;-74
2020/12/08 12:39:51;;;;;;;27.97;16.97;;;;;;;;;;4983801;28;20890;-74
2020/12/08 12:42:55;;;;;;;25.57;14.70;;;;;;;;;;5015390;28;20537;-74
2020/12/08 12:45:59;;;;;;;25.47;14.70;;;;;;;;;;5014514;28;20715;-74
2020/12/08 12:49:03;;;;;;;22.90;13.83;;;;;;;;;;5002706;28;20605;-74
2020/12/08 12:52:08;;;;;;;22.90;14.97;;;;;;;;;;4983786;28;20541;-74
2020/12/08 12:55:12;;;;;;;22.50;15.03;;;;;;;;;;5024483;23;20695;-73
2020/12/08 12:58:16;;;;;;;22.23;14.53;;;;;;;;;;4998276;28;20590;-73
2020/12/08 13:01:21;;;;;;;22.67;14.37;;;;;;;;;;5002796;28;20931;-73
2020/12/08 13:04:25;;;;;;;22.13;13.97;;;;;;;;;;5003646;28;20602;-73
2020/12/08 13:07:29;;;;;;;21.47;13.03;;;;;;;;;;5014111;28;20628;-73
2020/12/08 13:10:34;;;;;;;21.87;13.13;;;;;;;;;;5014812;28;20585;-72
2020/12/08 13:13:38;;;;;;;21.17;13.97;;;;;;;;;;5015151;28;20545;-73
2020/12/08 13:16:42;;;;;;;23.83;13.97;;;;;;;;;;5014852;28;20660;-73
2020/12/08 13:19:47;;;;;;;19.83;13.10;;;;;;;;;;4997144;28;20597;-73
2020/12/08 13:22:51;;;;;;;20.57;13.07;;;;;;;;;;4983131;28;20597;-73
2020/12/08 13:25:55;;;;;;;21.33;13.43;;;;;;;;;;4994934;28;20653;-73
2020/12/08 13:28:59;;;;;;;19.33;12.87;;;;;;;;;;4995291;28;20554;-73
2020/12/08 13:32:03;;;;;;;19.40;12.23;;;;;;;;;;4987112;28;21153;-73
2020/12/08 13:35:08;;;;;;;24.23;15.63;;;;;;;;;;5014421;28;20592;-73
2020/12/08 13:38:12;;;;;;;20.07;12.87;;;;;;;;;;5014648;28;20971;-73
2020/12/08 13:41:16;;;;;;;28.07;16.87;;;;;;;;;;5014400;28;20600;-73
2020/12/08 13:44:20;;;;;;;23.63;15.37;;;;;;;;;;4995495;28;20621;-73
2020/12/08 13:47:24;;;;;;;23.07;13.90;;;;;;;;;;4995724;28;20650;-73
2020/12/08 13:50:28;;;;;;;20.00;13.77;;;;;;;;;;4994639;28;20593;-73
2020/12/08 13:53:32;;;;;;;20.73;13.23;;;;;;;;;;4993894;28;20542;-73
2020/12/08 13:56:36;;;;;;;22.97;13.90;;;;;;;;;;4994374;28;20653;-73
2020/12/08 13:59:41;;;;;;;22.23;13.33;;;;;;;;;;5010160;28;20605;-73
2020/12/08 14:02:45;;;;;;;20.10;13.30;;;;;;;;;;5001885;28;21172;-73
2020/12/08 14:05:52;;;;;;;19.93;12.07;;;;;;;;;;5002074;28;20624;-73
2020/12/08 14:08:57;;;;;;;20.20;13.40;;;;;;;;;;5014118;28;20545;-73
2020/12/08 14:12:01;;;;;;;25.23;15.03;;;;;;;;;;5013987;28;20560;-73
2020/12/08 14:15:04;;;;;;;31.93;17.73;;;;;;;;;;5001941;28;20545;-73
2020/12/08 14:18:09;;;;;;;22.90;14.17;;;;;;;;;;4994613;28;20546;-73
2020/12/08 14:21:13;;;;;;;21.03;12.47;;;;;;;;;;4994146;28;20589;-73
2020/12/08 14:24:24;;;;;;;20.07;12.67;;;;;;;;;;4994059;28;20542;-73
2020/12/08 14:27:29;;;;;;;20.50;12.97;;;;;;;;;;5010780;28;20652;-73
2020/12/08 14:30:33;;;;;;;19.67;12.50;;;;;;;;;;4999571;28;20585;-71
2020/12/08 14:33:37;;;;;;;20.93;12.67;;;;;;;;;;5013178;28;20593;-75
2020/12/08 14:36:42;;;;;;;25.07;13.23;;;;;;;;;;5001440;28;21233;-74
2020/12/08 14:39:46;;;;;;;19.70;12.47;;;;;;;;;;5013637;28;21099;-74
2020/12/08 14:42:50;;;;;;;18.67;12.97;;;;;;;;;;5013724;28;20537;-74
2020/12/08 14:45:55;;;;;;;16.73;11.33;;;;;;;;;;5013326;28;20616;-75
2020/12/08 14:49:00;;;;;;;14.40;10.73;;;;;;;;;;5013365;28;20604;-75
2020/12/08 14:52:04;;;;;;;15.13;10.33;;;;;;;;;;5013665;28;20541;-74
2020/12/08 14:55:08;;;;;;;16.40;10.43;;;;;;;;;;5001231;28;20620;-75
2020/12/08 14:58:12;;;;;;;16.43;10.77;;;;;;;;;;5001465;28;20533;-75
2020/12/08 15:01:16;;;;;;;16.30;10.63;;;;;;;;;;5013468;28;21123;-75
2020/12/08 15:04:21;;;;;;;17.60;11.70;;;;;;;;;;5013453;28;20545;-75
2020/12/08 15:07:25;;;;;;;19.87;12.97;;;;;;;;;;5017023;28;20622;-74
2020/12/08 15:10:29;;;;;;;17.60;12.37;;;;;;;;;;5017176;28;20552;-75
2020/12/08 15:13:34;;;;;;;16.77;11.27;;;;;;;;;;4994181;28;20541;-74
2020/12/08 15:16:38;;;;;;;19.43;12.83;;;;;;;;;;5016994;28;20663;-75
2020/12/08 15:19:43;;;;;;;19.20;12.93;;;;;;;;;;5016894;28;20604;-74
2020/12/08 15:22:47;;;;;;;14.70;10.33;;;;;;;;;;5017133;28;20545;-74
2020/12/08 15:25:51;;;;;;;17.23;11.20;;;;;;;;;;4985184;28;20981;-74
2020/12/08 15:28:57;;;;;;;23.80;17.37;;;;;;;;;;5000240;28;20592;-75
2020/12/08 15:32:01;;;;;;;25.83;18.43;;;;;;;;;;5016427;28;20596;-75
2020/12/08 15:35:05;;;;;;;19.57;13.73;;;;;;;;;;5014934;28;20627;-75
2020/12/08 15:38:09;;;;;;;17.27;11.60;;;;;;;;;;5016588;28;20549;-74
2020/12/08 15:41:18;;;;;;;14.83;9.87;;;;;;;;;;5016618;28;20561;-74
2020/12/08 15:44:22;;;;;;;15.37;9.60;;;;;;;;;;5015787;28;20600;-75
2020/12/08 15:47:26;;;;;;;15.30;9.77;;;;;;;;;;5002114;28;21260;-74
2020/12/08 15:50:31;;;;;;;14.67;10.07;;;;;;;;;;4994730;28;20597;-74
2020/12/08 15:53:36;;;;;;;20.60;11.57;;;;;;;;;;4996493;28;20620;-75
2020/12/08 15:56:41;;;;;;;29.60;17.17;;;;;;;;;;5001624;28;20668;-74
2020/12/08 15:59:45;;;;;;;33.10;20.20;;;;;;;;;;5003852;28;20588;-74
2020/12/08 16:02:49;;;;;;;29.80;16.73;;;;;;;;;;5004091;28;21123;-74
2020/12/08 16:05:53;;;;;;;21.27;13.67;;;;;;;;;;5007368;28;20656;-75
2020/12/08 16:08:57;;;;;;;23.73;14.90;;;;;;;;;;4996446;28;20541;-74
2020/12/08 16:12:01;;;;;;;23.33;15.07;;;;;;;;;;4996452;28;20593;-74
2020/12/08 16:15:07;;;;;;;27.03;16.90;;;;;;;;;;4985707;28;20546;-75
2020/12/08 16:18:11;;;;;;;24.73;16.10;;;;;;;;;;4995998;28;20537;-74
2020/12/08 16:21:16;;;;;;;22.37;12.80;;;;;;;;;;4996281;28;20597;-75
2020/12/08 16:24:19;;;;;;;15.17;10.17;;;;;;;;;;4996073;28;20601;-74
2020/12/08 16:27:24;;;;;;;16.97;11.33;;;;;;;;;;4984099;28;21219;-75
2020/12/08 16:30:28;;;;;;;19.50;13.13;;;;;;;;;;4984272;28;20624;-74
2020/12/08 16:33:34;;;;;;;23.10;13.70;;;;;;;;;;4995939;28;20592;-75
2020/12/08 16:36:39;;;;;;;20.40;12.70;;;;;;;;;;4996066;28;20665;-75
2020/12/08 16:39:43;;;;;;;18.43;11.57;;;;;;;;;;5001681;28;20593;-74
2020/12/08 16:42:48;;;;;;;13.93;9.10;;;;;;;;;;5015413;28;20612;-74
2020/12/08 16:45:53;;;;;;;20.53;12.43;;;;;;;;;;5006148;28;20656;-75
2020/12/08 16:48:57;;;;;;;21.47;13.23;;;;;;;;;;4992028;28;20932;-75
2020/12/08 16:52:12;;;;;;;15.00;10.60;;;;;;;;;;5015771;28;20540;-74
2020/12/08 16:55:17;;;;;;;16.73;10.80;;;;;;;;;;4995608;28;20612;-74
2020/12/08 16:58:21;;;;;;;16.00;9.60;;;;;;;;;;4991993;28;20950;-74
2020/12/08 17:01:26;;;;;;;14.43;9.20;;;;;;;;;;5013697;28;20588;-75
2020/12/08 17:04:30;;;;;;;13.60;8.33;;;;;;;;;;4983351;28;20604;-74
2020/12/08 17:07:34;;;;;;;14.77;10.13;;;;;;;;;;4972707;28;20621;-74
2020/12/08 17:10:38;;;;;;;13.43;8.83;;;;;;;;;;5007325;28;20928;-74
2020/12/08 17:13:42;;;;;;;9.80;7.43;;;;;;;;;;4998944;28;20578;-74
2020/12/08 17:16:47;;;;;;;14.47;7.97;;;;;;;;;;4991066;28;20648;-74
2020/12/08 17:19:51;;;;;;;12.33;8.10;;;;;;;;;;5011893;28;20605;-75
2020/12/08 17:22:55;;;;;;;11.43;7.70;;;;;;;;;;4984087;28;20589;-75
2020/12/08 17:26:00;;;;;;;13.97;8.73;;;;;;;;;;5005196;28;20640;-74
2020/12/08 17:29:04;;;;;;;13.57;8.10;;;;;;;;;;4996497;28;21068;-74
2020/12/08 17:32:10;;;;;;;12.93;7.87;;;;;;;;;;5013715;28;20576;-75
2020/12/08 17:35:15;;;;;;;10.97;8.33;;;;;;;;;;5002097;28;20600;-75
2020/12/08 17:38:19;;;;;;;9.87;6.50;;;;;;;;;;5000619;28;20625;-75
2020/12/08 17:41:23;;;;;;;11.13;6.53;;;;;;;;;;4989048;28;21182;-75
2020/12/08 17:44:27;;;;;;;15.63;7.70;;;;;;;;;;4995431;28;20616;-75
2020/12/08 17:47:35;;;;;;;13.03;7.47;;;;;;;;;;5007686;28;20981;-75
2020/12/08 17:50:40;;;;;;;14.93;8.50;;;;;;;;;;4985299;28;20589;-75
2020/12/08 17:53:45;;;;;;;14.07;8.23;;;;;;;;;;4986424;28;21183;-75
2020/12/08 17:56:50;;;;;;;12.33;7.57;;;;;;;;;;4994410;28;20645;-75